createdAt,value
2018-12-27T00:01:31.407Z,14.63
2018-12-27T00:05:39.666Z,13.97
2018-12-27T00:09:47.925Z,14.00
2018-12-27T00:13:56.235Z,14.13
2018-12-27T00:18:04.513Z,16.50
2018-12-27T00:22:12.764Z,14.27
2018-12-27T00:26:21.019Z,13.43
2018-12-27T00:30:29.314Z,16.07
2018-12-27T00:34:37.655Z,13.40
2018-12-27T00:38:45.933Z,14.07
2018-12-27T00:42:54.275Z,14.53
2018-12-27T00:47:02.601Z,12.57
2018-12-27T00:51:10.919Z,13.07
2018-12-27T00:55:19.157Z,12.50
2018-12-27T00:59:27.466Z,13.07
2018-12-27T01:03:35.751Z,13.50
2018-12-27T01:07:44.038Z,12.27
2018-12-27T01:11:52.279Z,13.77
2018-12-27T01:16:02.305Z,13.27
2018-12-27T01:20:08.839Z,13.20
2018-12-27T01:24:17.109Z,12.60
2018-12-27T01:28:25.427Z,14.77
2018-12-27T01:32:33.630Z,11.57
2018-12-27T01:36:41.901Z,14.20
2018-12-27T01:40:50.142Z,14.23
2018-12-27T01:44:58.398Z,12.73
2018-12-27T01:49:06.651Z,13.77
2018-12-27T01:53:14.934Z,12.50
2018-12-27T01:57:23.221Z,14.10
2018-12-27T02:01:31.478Z,13.50
2018-12-27T02:05:39.750Z,12.27
2018-12-27T02:09:48.017Z,13.17
2018-12-27T02:13:56.318Z,13.10
2018-12-27T02:18:04.594Z,13.63
2018-12-27T02:22:12.907Z,11.93
2018-12-27T02:26:21.152Z,12.37
2018-12-27T02:30:29.446Z,13.90
2018-12-27T02:34:37.700Z,12.37
2018-12-27T02:38:45.693Z,13.07
2018-12-27T02:42:54.027Z,13.00
2018-12-27T02:47:02.333Z,13.23
2018-12-27T02:51:10.654Z,13.10
2018-12-27T02:55:19.032Z,12.60
2018-12-27T02:59:27.308Z,11.90
2018-12-27T03:03:43.643Z,12.73
2018-12-27T03:07:44.031Z,12.40
2018-12-27T03:11:52.394Z,12.20
2018-12-27T03:16:00.431Z,13.43
2018-12-27T03:20:08.686Z,11.10
2018-12-27T03:24:17.108Z,11.77
2018-12-27T03:28:25.409Z,13.10
2018-12-27T03:32:33.703Z,12.20
2018-12-27T03:36:42.020Z,12.10
2018-12-27T03:40:50.328Z,12.37
2018-12-27T03:44:58.681Z,12.60
2018-12-27T03:49:06.974Z,12.70
2018-12-27T03:53:15.302Z,13.73
2018-12-27T03:57:23.615Z,12.67
2018-12-27T04:01:31.927Z,14.63
2018-12-27T04:05:40.229Z,12.50
2018-12-27T04:09:48.556Z,11.07
2018-12-27T04:13:56.855Z,13.17
2018-12-27T04:18:05.207Z,12.07
2018-12-27T04:22:13.487Z,11.10
2018-12-27T04:26:21.892Z,11.50
2018-12-27T04:30:30.185Z,13.60
2018-12-27T04:34:38.570Z,12.90
2018-12-27T04:38:46.916Z,13.57
2018-12-27T04:42:55.251Z,12.83
2018-12-27T04:47:03.618Z,12.60
2018-12-27T04:51:11.917Z,13.77
2018-12-27T04:55:20.378Z,13.47
2018-12-27T04:59:28.703Z,11.48
2018-12-27T05:03:37.040Z,13.43
2018-12-27T05:07:45.350Z,12.00
2018-12-27T05:11:53.649Z,12.83
2018-12-27T05:16:01.950Z,10.47
2018-12-27T05:20:10.255Z,11.20
2018-12-27T05:24:18.614Z,11.55
2018-12-27T05:28:26.925Z,15.03
2018-12-27T05:32:35.282Z,12.37
2018-12-27T05:36:43.635Z,11.60
2018-12-27T05:40:51.960Z,11.90
2018-12-27T05:45:00.273Z,12.23
2018-12-27T05:49:08.602Z,12.37
2018-12-27T05:53:16.973Z,12.28
2018-12-27T05:57:25.088Z,12.30
2018-12-27T06:01:33.374Z,12.00
2018-12-27T06:05:41.645Z,11.93
2018-12-27T06:09:49.952Z,11.30
2018-12-27T06:13:58.197Z,11.83
2018-12-27T06:18:06.514Z,11.30
2018-12-27T06:22:14.785Z,12.35
2018-12-27T06:26:23.093Z,11.30
2018-12-27T06:30:31.479Z,11.93
2018-12-27T06:34:41.557Z,11.17
2018-12-27T06:38:48.131Z,12.17
2018-12-27T06:42:56.458Z,10.77
2018-12-27T06:47:04.858Z,12.30
2018-12-27T06:51:13.138Z,13.03
2018-12-27T06:55:21.437Z,10.67
2018-12-27T06:59:29.750Z,10.70
2018-12-27T07:03:38.103Z,11.10
2018-12-27T07:07:46.380Z,11.57
2018-12-27T07:11:56.346Z,10.53
2018-12-27T07:16:02.955Z,11.47
2018-12-27T07:20:11.198Z,11.13
2018-12-27T07:24:19.536Z,11.17
2018-12-27T07:28:27.869Z,12.07
2018-12-27T07:32:40.634Z,11.30
2018-12-27T07:36:49.004Z,11.57
2018-12-27T07:40:57.311Z,12.97
2018-12-27T07:45:05.622Z,11.20
2018-12-27T07:49:13.893Z,13.50
2018-12-27T07:53:22.210Z,11.60
2018-12-27T07:57:30.543Z,11.97
2018-12-27T08:01:38.887Z,11.53
2018-12-27T08:05:47.212Z,11.97
2018-12-27T08:09:55.479Z,13.30
2018-12-27T08:14:03.869Z,12.30
2018-12-27T08:18:12.214Z,11.80
2018-12-27T08:22:20.572Z,12.13
2018-12-27T08:26:28.848Z,12.70
2018-12-27T08:30:37.162Z,12.40
2018-12-27T08:34:45.479Z,13.10
2018-12-27T08:38:53.763Z,12.80
2018-12-27T08:43:02.061Z,11.93
2018-12-27T08:47:10.321Z,12.27
2018-12-27T08:51:18.616Z,12.23
2018-12-27T08:55:26.930Z,12.27
2018-12-27T08:59:35.265Z,11.67
2018-12-27T09:03:43.560Z,14.43
2018-12-27T09:07:51.829Z,13.37
2018-12-27T09:12:00.200Z,13.30
2018-12-27T09:16:08.581Z,13.60
2018-12-27T09:20:16.854Z,14.87
2018-12-27T09:24:25.199Z,15.67
2018-12-27T09:28:33.535Z,14.80
2018-12-27T09:32:41.836Z,14.27
2018-12-27T09:36:50.467Z,12.37
2018-12-27T09:40:58.420Z,13.60
2018-12-27T09:45:06.899Z,13.00
2018-12-27T09:49:15.194Z,13.50
2018-12-27T09:53:23.452Z,12.30
2018-12-27T09:57:31.749Z,12.80
2018-12-27T10:01:40.122Z,12.13
2018-12-27T10:05:48.396Z,13.50
2018-12-27T10:09:56.703Z,13.43
2018-12-27T10:14:05.055Z,13.70
2018-12-27T10:18:13.346Z,11.70
2018-12-27T10:22:21.658Z,13.40
2018-12-27T10:26:29.958Z,13.50
2018-12-27T10:30:38.206Z,12.53
2018-12-27T10:34:46.506Z,13.50
2018-12-27T10:38:58.968Z,11.60
2018-12-27T10:43:09.674Z,13.10
2018-12-27T10:47:17.709Z,11.70
2018-12-27T10:51:25.994Z,11.80
2018-12-27T10:55:34.338Z,12.10
2018-12-27T10:59:42.679Z,11.40
2018-12-27T11:03:50.965Z,12.47
2018-12-27T11:07:59.343Z,11.63
2018-12-27T11:12:07.648Z,12.03
2018-12-27T11:16:15.982Z,11.60
2018-12-27T11:20:24.942Z,11.50
2018-12-27T11:24:33.201Z,11.03
2018-12-27T11:28:41.506Z,11.20
2018-12-27T11:32:49.754Z,11.57
2018-12-27T11:36:58.026Z,11.77
2018-12-27T11:41:06.302Z,10.07
2018-12-27T11:45:14.578Z,10.43
2018-12-27T11:49:22.868Z,10.97
2018-12-27T11:53:31.165Z,12.80
2018-12-27T11:57:39.407Z,11.33
2018-12-27T12:01:47.803Z,12.73
2018-12-27T12:06:03.028Z,12.20
2018-12-27T12:10:04.883Z,10.63
2018-12-27T12:14:13.164Z,10.37
2018-12-27T12:18:21.478Z,11.97
2018-12-27T12:22:29.602Z,12.20
2018-12-27T12:26:37.907Z,12.77
2018-12-27T12:30:46.227Z,11.27
2018-12-27T12:34:54.488Z,11.50
2018-12-27T12:39:02.900Z,12.33
2018-12-27T12:43:11.182Z,11.10
2018-12-27T12:47:19.475Z,11.57
2018-12-27T12:51:27.758Z,12.10
2018-12-27T12:55:36.120Z,10.63
2018-12-27T12:59:44.429Z,11.97
2018-12-27T13:03:52.762Z,12.10
2018-12-27T13:08:01.083Z,10.32
2018-12-27T13:12:09.434Z,12.23
2018-12-27T13:16:17.782Z,10.20
2018-12-27T13:20:26.091Z,11.30
2018-12-27T13:24:34.391Z,10.97
2018-12-27T13:28:42.713Z,11.23
2018-12-27T13:32:51.002Z,10.97
2018-12-27T13:36:59.281Z,10.13
2018-12-27T13:41:07.638Z,10.87
2018-12-27T13:45:15.958Z,10.20
2018-12-27T13:49:24.277Z,10.00
2018-12-27T13:53:32.594Z,10.00
2018-12-27T13:57:40.911Z,11.30
2018-12-27T14:01:49.225Z,12.00
2018-12-27T14:05:57.590Z,10.20
2018-12-27T14:10:08.469Z,10.80
2018-12-27T14:14:16.797Z,12.13
2018-12-27T14:18:25.131Z,10.30
2018-12-27T14:22:33.454Z,10.87
2018-12-27T14:26:41.775Z,11.27
2018-12-27T14:30:50.070Z,11.00
2018-12-27T14:34:58.357Z,11.60
2018-12-27T14:39:07.335Z,10.57
2018-12-27T14:43:15.607Z,12.20
2018-12-27T14:47:23.964Z,11.63
2018-12-27T14:51:32.352Z,11.20
2018-12-27T14:55:40.646Z,11.40
2018-12-27T14:59:49.028Z,11.00
2018-12-27T15:03:57.366Z,11.87
2018-12-27T15:08:05.690Z,11.10
2018-12-27T15:12:13.987Z,13.10
2018-12-27T15:16:22.342Z,12.40
2018-12-27T15:20:30.666Z,12.37
2018-12-27T15:24:38.986Z,11.37
2018-12-27T15:28:47.487Z,12.10
2018-12-27T15:32:55.767Z,13.90
2018-12-27T15:37:04.051Z,11.87
2018-12-27T15:41:12.329Z,11.73
2018-12-27T15:45:20.623Z,11.73
2018-12-27T15:49:28.922Z,12.60
2018-12-27T15:53:37.189Z,12.67
2018-12-27T15:57:45.459Z,10.93
2018-12-27T16:01:53.751Z,12.53
2018-12-27T16:06:01.835Z,12.27
2018-12-27T16:10:10.112Z,11.97
2018-12-27T16:18:32.096Z,12.25
2018-12-27T16:22:40.417Z,11.23
2018-12-27T16:26:48.691Z,13.50
2018-12-27T16:30:57.042Z,14.27
2018-12-27T16:35:05.437Z,14.37
2018-12-27T16:39:13.711Z,14.63
2018-12-27T16:43:22.024Z,16.80
2018-12-27T16:47:30.318Z,13.60
2018-12-27T16:51:38.640Z,15.13
2018-12-27T16:55:47.067Z,13.77
2018-12-27T16:59:55.357Z,18.20
2018-12-27T17:04:03.690Z,15.47
2018-12-27T17:08:11.958Z,15.13
2018-12-27T17:12:20.311Z,16.00
2018-12-27T17:16:28.679Z,16.53
2018-12-27T17:20:36.990Z,15.10
2018-12-27T17:24:45.277Z,15.47
2018-12-27T17:28:53.545Z,14.73
2018-12-27T17:33:01.854Z,15.03
2018-12-27T17:37:10.091Z,16.40
2018-12-27T17:41:18.350Z,15.80
2018-12-27T17:45:26.691Z,15.47
2018-12-27T17:49:34.974Z,17.20
2018-12-27T17:53:43.242Z,17.93
2018-12-27T17:57:51.562Z,17.10
2018-12-27T18:01:59.833Z,15.13
2018-12-27T18:06:08.187Z,15.10
2018-12-27T18:10:19.266Z,15.00
2018-12-27T18:14:27.550Z,15.70
2018-12-27T18:18:35.859Z,14.30
2018-12-27T18:22:44.135Z,15.87
2018-12-27T18:26:52.414Z,15.63
2018-12-27T18:31:00.680Z,16.67
2018-12-27T18:35:09.032Z,17.27
2018-12-27T18:39:17.327Z,15.03
2018-12-27T18:43:25.623Z,17.13
2018-12-27T18:47:33.936Z,17.00
2018-12-27T18:51:42.257Z,16.47
2018-12-27T18:55:50.526Z,16.87
2018-12-27T18:59:58.790Z,14.37
2018-12-27T19:04:07.077Z,14.87
2018-12-27T19:08:15.422Z,16.10
2018-12-27T19:12:35.158Z,16.70
2018-12-27T19:16:43.417Z,14.57
2018-12-27T19:20:59.041Z,16.40
2018-12-27T19:25:06.142Z,15.70
2018-12-27T19:29:14.450Z,15.47
2018-12-27T19:33:22.834Z,16.20
2018-12-27T19:37:31.131Z,13.68
2018-12-27T19:41:39.466Z,15.40
2018-12-27T19:45:47.750Z,14.73
2018-12-27T19:49:56.097Z,16.00
2018-12-27T19:54:04.419Z,16.20
2018-12-27T19:58:12.801Z,17.10
2018-12-27T20:02:21.158Z,17.83
2018-12-27T20:06:29.490Z,14.53
2018-12-27T20:10:37.761Z,17.80
2018-12-27T20:14:46.101Z,15.60
2018-12-27T20:18:54.374Z,18.63
2018-12-27T20:23:02.670Z,16.67
2018-12-27T20:27:10.991Z,18.80
2018-12-27T20:31:19.275Z,16.93
2018-12-27T20:35:27.665Z,14.97
2018-12-27T20:39:35.951Z,20.07
2018-12-27T20:43:44.220Z,17.77
2018-12-27T20:47:52.514Z,18.40
2018-12-27T20:52:00.898Z,17.30
2018-12-27T20:56:09.213Z,17.47
2018-12-27T21:00:17.564Z,17.10
2018-12-27T21:04:25.862Z,15.63
2018-12-27T21:08:34.208Z,17.93
2018-12-27T21:12:42.510Z,18.40
2018-12-27T21:16:50.852Z,18.23
2018-12-27T21:20:59.175Z,17.67
2018-12-27T21:25:07.436Z,18.93
2018-12-27T21:29:15.786Z,18.37
2018-12-27T21:33:24.077Z,18.50
2018-12-27T21:37:32.366Z,16.67
2018-12-27T21:41:40.666Z,17.90
2018-12-27T21:45:48.934Z,17.20
2018-12-27T21:49:57.257Z,18.10
2018-12-27T21:54:05.494Z,18.97
2018-12-27T21:58:13.805Z,17.00
2018-12-27T22:02:22.252Z,17.50
2018-12-27T22:06:30.537Z,16.87
2018-12-27T22:10:38.889Z,17.90
2018-12-27T22:14:46.969Z,17.07
2018-12-27T22:18:55.258Z,18.67
2018-12-27T22:23:03.552Z,18.73
2018-12-27T22:27:11.899Z,20.20
2018-12-27T22:31:20.249Z,18.73
2018-12-27T22:35:28.534Z,17.50
2018-12-27T22:39:36.851Z,17.40
2018-12-27T22:43:44.928Z,18.00
2018-12-27T22:47:53.206Z,17.93
2018-12-27T22:52:01.451Z,20.47
2018-12-27T22:56:09.813Z,18.50
2018-12-27T23:00:19.931Z,19.30
2018-12-27T23:04:28.187Z,21.90
2018-12-27T23:08:42.822Z,20.80
2018-12-27T23:12:44.873Z,17.47
2018-12-27T23:16:53.201Z,18.50
2018-12-27T23:21:01.474Z,17.27
2018-12-27T23:25:09.771Z,19.47
2018-12-27T23:29:18.098Z,19.13
2018-12-27T23:33:26.370Z,20.73
2018-12-27T23:37:34.395Z,19.70
2018-12-27T23:41:42.710Z,20.27
2018-12-27T23:45:51.013Z,19.53
2018-12-27T23:49:59.347Z,19.80
2018-12-27T23:54:07.355Z,19.03
2018-12-27T23:58:15.638Z,19.10
